Aeroporto :
LOGIN :

Iscrizione | Disclaimer

   EN    FR    IT 

 










Sommario :    VFR   VFR Marginale   IFR   IFR Intensivo   IFR Molto Intensivo
Visibilità : 
Base nubi : 
>= 8 km
>= 3000ft
5 / 8 km
1000 / 3000 ft
1500m / 5 km
500 / 1000 ft
800 / 1500m
200 / 500 ft
< 800m
< 200 ft
Simboli :   Temporali  Nebbia  Neve Forte  Precipitazioni Forti  Vento > 20 kt
SIGMETs :   Varie  Temporali  Ghiacco  Turbolenza  Onda orograficha  Ceneri Vulcaniche







- Altitudine del aeroporto : 751 ft
- Codice IATA : ENC
- Carte del aeroporto


LFSN - Nancy Essey

ULTIMO METAR :
  • 181500Z AUTO 24007KT 210V270 9999 ///CB 29/15 Q1015

METARs OBSOLETI :
  • 181430Z AUTO 23008KT 200V260 9999 ///CB 30/15 Q1015
  • 181400Z AUTO 22009KT 190V260 9999 ///CB 29/15 Q1015
  • 181330Z AUTO 21006KT 160V250 CAVOK 29/15 Q1016
  • 181300Z AUTO 19009KT 150V210 CAVOK 30/15 Q1016
  • 181230Z AUTO 18009KT 140V220 CAVOK 29/16 Q1016
  • 181200Z AUTO 19010KT 160V220 CAVOK 29/15 Q1016

Previsioni scadute.
Nessun NOTAM noto per questo aeroporto.
1 SIGMET conosciuto per la FIR Reims (LFEE) :
 
Temporali affogati
LFEE SIGMET 1 VALID 181450/181700 LFPW
LFEE REIMS FIR/UIR EMBD TS OBS WI N4700 E00430 - N4730 E00415 - N4830 E00545 - N4845 E00630 - N4700 E00430 TOP FL380 MOV NE 10KT NC=



MetMap, La meteo Aeronautica in un colpo d'occhio ! - Copyright ORBIFLY Dicembre 2007 - Disclaimer

ORBIFLY MET'MAP TEAM :

Programmazione e sviluppo : Alexandra Zaïnal
Concezione e sviluppo : Baudouin d'Aumeries
Co-Programmazione e sviluppo : Marc-Olivier Méhu
Supporto tecnico e logistico : Manuel Goepfert
Aiuto per la traduzione : Arnaldo La Scala

Contatto : metmap@orbifly.com




FONTI E CREDITI :

   NOAA